CNW2 weather

Public forecast

Using degrees Celsius for public forecast. Weather courtesy of forecast.io.

Closest aviation weather report (METAR) to Windermere Airport

Closest report is Muskoka Airport, 15.0 nm (27.7 km) SE. Retrieved 2020/08/09 13:00 UTC (27 minutes ago):

CYQA 091300Z AUTO 19005KT 9SM OVC022 20/18 A3001 RMK SLP164 DENSITY ALT 1500FT

Closest aviation forecast (TAF) to Windermere Airport

Closest forecast is Muskoka Airport, 15.0 nm (27.7 km) SE. Retrieved 2020/08/09 12:42 UTC (45 minutes ago):

TAF CYQA 091138Z 0912/0924 15005KT P6SM OVC025 TEMPO 0912/0914 5SM -RA BR BKN007 OVC012 FM091500 25008KT P6SM BKN040 TEMPO 0915/0918 5SM -RA BR BKN020 FM091800 27008KT P6SM BKN020 TEMPO 0918/0921 BKN030 FM092100 28008KT P6SM SCT030 RMK FCST BASED ON AUTO OBS NXT FCST BY 091400Z